Time;durP1;ratioP1;P1;durP2;ratioP2;P2;SDS_P1;SDS_P2;PMS_P1;PMS_P2;Temp;Humidity;BMP_temperature;BMP_pressure;BME280_temperature;BME280_humidity;BME280_pressure;Samples;Min_cycle;Max_cycle;Signal;HPM_P1;HPM_P2
2021/06/17 00:02:03;;;;;;;10.95;4.88;;;;;;;19.27;70.27;99559.28;5074159;28;20024;-75
2021/06/17 00:04:29;;;;;;;9.30;4.63;;;;;;;19.24;70.02;99538.34;5074203;28;20039;-77
2021/06/17 00:06:54;;;;;;;11.07;5.65;;;;;;;19.39;69.94;99559.31;5074081;28;20029;-76
2021/06/17 00:09:20;;;;;;;13.20;5.43;;;;;;;19.02;69.61;99498.00;5074269;28;20029;-75
2021/06/17 00:11:45;;;;;;;8.15;4.63;;;;;;;19.17;69.46;99508.22;5074181;28;20021;-76
2021/06/17 00:14:10;;;;;;;9.27;4.75;;;;;;;19.30;69.48;99533.91;5074249;28;20024;-76
2021/06/17 00:16:36;;;;;;;8.30;4.50;;;;;;;19.04;69.37;99501.25;5073995;28;20034;-76
2021/06/17 00:19:02;;;;;;;9.90;4.70;;;;;;;19.20;69.64;99520.31;5073941;28;20432;-75
2021/06/17 00:21:28;;;;;;;11.13;5.45;;;;;;;19.19;69.49;99507.97;5073926;28;20025;-76
2021/06/17 00:23:53;;;;;;;10.88;5.55;;;;;;;19.26;69.45;99519.38;5072116;28;20028;-76
2021/06/17 00:26:19;;;;;;;9.80;4.68;;;;;;;19.09;69.39;99489.84;5073677;28;20029;-76
2021/06/17 00:28:44;;;;;;;11.02;4.82;;;;;;;18.82;69.43;99454.75;5072307;28;20025;-77
2021/06/17 00:31:09;;;;;;;6.25;4.43;;;;;;;19.09;69.54;99491.69;5073899;28;20024;-76
2021/06/17 00:33:35;;;;;;;11.52;4.82;;;;;;;19.10;69.71;99510.22;5072544;28;20035;-76
2021/06/17 00:36:00;;;;;;;12.23;5.75;;;;;;;19.14;69.86;99510.53;5073397;28;20025;-75
2021/06/17 00:38:26;;;;;;;9.50;5.50;;;;;;;19.36;69.88;99560.59;5073504;28;20020;-76
2021/06/17 00:40:53;;;;;;;9.70;5.40;;;;;;;19.25;69.82;99528.47;5073482;28;20053;-75
2021/06/17 00:43:19;;;;;;;8.77;4.57;;;;;;;19.42;69.98;99545.47;5073476;28;20036;-76
2021/06/17 00:45:46;;;;;;;9.73;4.95;;;;;;;19.46;69.71;99549.28;5072217;28;20021;-76
2021/06/17 00:48:13;;;;;;;10.82;5.38;;;;;;;19.48;69.63;99547.19;5073185;28;20028;-75
2021/06/17 00:51:00;;;;;;;9.07;4.95;;;;;;;19.49;69.56;99540.78;5072296;28;20115;-76
2021/06/17 00:53:31;;;;;;;13.68;5.15;;;;;;;19.54;69.44;99543.59;5073284;28;20104;-75
2021/06/17 00:55:57;;;;;;;6.85;4.32;;;;;;;19.54;69.00;99540.91;5073504;28;20055;-75
2021/06/17 00:58:24;;;;;;;8.07;4.45;;;;;;;19.49;68.91;99530.06;5073085;28;20406;-75
2021/06/17 01:00:49;;;;;;;7.88;4.25;;;;;;;18.94;68.68;99436.00;5073080;28;20056;-75
2021/06/17 01:03:16;;;;;;;11.18;4.75;;;;;;;19.56;68.82;99530.78;5073183;28;20485;-76
2021/06/17 01:05:42;;;;;;;7.00;4.57;;;;;;;19.56;68.75;99528.09;5072007;28;20032;-76
2021/06/17 01:08:12;;;;;;;6.85;4.40;;;;;;;19.50;68.74;99526.34;5072713;28;20028;-74
2021/06/17 01:11:00;;;;;;;7.10;4.85;;;;;;;19.46;68.74;99514.47;5072817;28;20039;-75
2021/06/17 01:13:42;;;;;;;10.45;5.63;;;;;;;19.29;68.67;99490.28;5072897;28;20584;-75
2021/06/17 01:16:10;;;;;;;;;;;;;;;19.42;69.14;99539.28;5073144;28;20036;-75
2021/06/17 01:18:42;;;;;;;8.55;4.57;;;;;;;19.52;68.51;99545.69;5072879;28;19908;-74
2021/06/17 01:21:39;;;;;;;12.93;5.45;;;;;;;19.52;68.50;99521.59;5072645;28;20035;-75
2021/06/17 01:24:22;;;;;;;6.95;4.30;;;;;;;19.45;68.55;99522.75;5072433;28;20036;-76
2021/06/17 01:27:10;;;;;;;7.38;5.07;;;;;;;19.44;68.51;99529.97;5073751;28;20024;-75
2021/06/17 01:29:37;;;;;;;8.50;4.70;;;;;;;19.51;68.48;99544.03;5072739;28;20024;-76
2021/06/17 01:32:04;;;;;;;8.82;5.25;;;;;;;19.23;68.36;99495.75;5072400;28;20481;-75
2021/06/17 01:34:31;;;;;;;9.25;5.10;;;;;;;19.46;68.44;99529.72;5071848;28;20035;-75
2021/06/17 01:37:02;;;;;;;8.38;4.80;;;;;;;19.50;68.37;99550.44;5072014;28;20046;-76
2021/06/17 01:39:30;;;;;;;6.82;5.20;;;;;;;19.50;68.24;99563.84;5072179;28;20082;-75
2021/06/17 01:41:58;;;;;;;6.43;4.90;;;;;;;19.49;68.39;99543.47;5072194;28;20028;-76
2021/06/17 01:44:24;;;;;;;8.77;5.15;;;;;;;18.96;68.45;99461.47;5072092;28;20027;-75
2021/06/17 01:46:52;;;;;;;10.48;6.28;;;;;;;19.15;68.44;99488.09;5072385;28;20020;-75
2021/06/17 01:49:18;;;;;;;8.55;4.90;;;;;;;19.02;68.18;99478.44;5071079;28;20028;-75
2021/06/17 01:51:44;;;;;;;8.07;4.90;;;;;;;19.25;68.13;99520.44;5071000;28;20032;-75
2021/06/17 01:54:20;;;;;;;6.75;4.72;;;;;;;19.51;68.04;99548.59;5072130;28;20085;-76
2021/06/17 01:56:48;;;;;;;7.45;5.32;;;;;;;19.46;68.07;99546.63;5072133;28;20025;-75
2021/06/17 01:59:14;;;;;;;6.30;4.88;;;;;;;19.24;67.92;99510.78;5070666;28;20496;-76
2021/06/17 02:01:40;;;;;;;7.85;5.07;;;;;;;19.13;67.91;99490.19;5072131;28;20107;-75
2021/06/17 02:04:06;;;;;;;6.50;4.55;;;;;;;19.29;67.83;99510.88;5072019;28;20059;-76
2021/06/17 02:06:34;;;;;;;6.93;4.80;;;;;;;19.18;67.72;99491.09;5071943;28;20540;-75
2021/06/17 02:09:00;;;;;;;5.93;4.50;;;;;;;19.53;67.53;99543.84;5072068;28;20028;-75
2021/06/17 02:11:28;;;;;;;6.47;4.70;;;;;;;19.19;67.32;99487.38;5071719;28;20024;-76
2021/06/17 02:13:54;;;;;;;7.70;5.20;;;;;;;19.43;67.46;99525.66;5071658;28;20493;-76
2021/06/17 02:16:21;;;;;;;5.85;5.25;;;;;;;19.56;67.20;99544.19;5071905;28;20060;-76
2021/06/17 02:18:50;;;;;;;7.60;4.65;;;;;;;19.56;67.16;99536.16;5071937;28;20032;-76
2021/06/17 02:21:17;;;;;;;5.18;4.72;;;;;;;19.55;67.11;99547.09;5070663;28;20020;-76
2021/06/17 02:23:47;;;;;;;5.90;4.55;;;;;;;19.41;67.16;99519.72;5071601;28;20020;-76
2021/06/17 02:26:13;;;;;;;4.97;4.50;;;;;;;19.33;66.81;99510.19;5071668;28;20572;-75
2021/06/17 02:28:43;;;;;;;5.75;4.60;;;;;;;19.23;67.04;99493.91;5071539;28;20029;-76
2021/06/17 02:31:12;;;;;;;5.07;4.53;;;;;;;19.60;66.96;99550.69;5071553;28;20029;-76
2021/06/17 02:33:39;;;;;;;5.38;4.70;;;;;;;19.19;66.86;99483.91;5071599;28;20289;-76
2021/06/17 02:36:06;;;;;;;7.00;4.70;;;;;;;19.42;66.65;99524.03;5071859;28;20028;-76
2021/06/17 02:38:38;;;;;;;6.82;4.43;;;;;;;19.65;66.39;99560.69;5072091;28;20074;-75
2021/06/17 02:41:07;;;;;;;4.85;4.40;;;;;;;19.54;66.44;99546.28;5071607;28;20028;-76
2021/06/17 02:43:36;;;;;;;6.28;4.80;;;;;;;19.65;66.45;99558.81;5071597;28;20052;-75
2021/06/17 02:46:02;;;;;;;6.38;4.38;;;;;;;19.60;66.21;99561.41;5071493;28;20024;-75
2021/06/17 02:48:27;;;;;;;5.43;4.47;;;;;;;19.62;66.53;99556.63;5071858;28;20028;-75
2021/06/17 02:50:53;;;;;;;7.15;4.60;;;;;;;19.56;66.24;99551.41;5071898;28;20024;-75
2021/06/17 02:53:18;;;;;;;6.57;4.50;;;;;;;19.19;66.26;99491.91;5071623;28;20016;-76
2021/06/17 02:55:44;;;;;;;4.57;4.18;;;;;;;19.68;66.34;99577.09;5071460;28;20412;-76
2021/06/17 02:58:38;;;;;;;6.40;4.38;;;;;;;19.68;66.23;99576.28;5071830;28;20107;-75
2021/06/17 03:01:18;;;;;;;4.72;4.25;;;;;;;19.59;66.39;99569.69;5073916;28;20043;-76
2021/06/17 03:04:05;;;;;;;10.77;4.78;;;;;;;19.22;66.24;99534.28;5072946;28;20016;-75
2021/06/17 03:06:38;;;;;;;3.92;3.63;;;;;;;19.42;66.19;99555.34;5071099;28;20038;-76
2021/06/17 03:09:09;;;;;;;5.97;5.05;;;;;;;19.60;66.14;99584.69;5069952;28;20467;-76
2021/06/17 03:11:37;;;;;;;6.05;4.80;;;;;;;19.67;66.13;99593.41;5071278;28;20504;-76
2021/06/17 03:14:08;;;;;;;5.78;4.38;;;;;;;19.58;66.33;99586.78;5071308;28;20497;-75
2021/06/17 03:16:37;;;;;;;5.50;5.00;;;;;;;19.45;66.07;99565.59;5071002;28;20029;-77
2021/06/17 03:19:04;;;;;;;6.88;5.28;;;;;;;19.44;66.33;99564.78;5071276;28;20032;-75
2021/06/17 03:21:38;;;;;;;8.82;5.13;;;;;;;19.41;66.17;99559.91;5071126;28;20024;-75
2021/06/17 03:24:06;;;;;;;10.35;5.10;;;;;;;19.60;66.32;99579.34;5070933;28;20024;-75
2021/06/17 03:26:35;;;;;;;9.73;4.60;;;;;;;19.65;66.47;99590.97;5071202;28;20016;-76
2021/06/17 03:29:02;;;;;;;7.13;5.05;;;;;;;19.68;66.41;99595.03;5071052;28;20048;-75
2021/06/17 03:31:28;;;;;;;8.25;4.82;;;;;;;19.36;66.51;99541.84;5071026;28;20576;-75
2021/06/17 03:33:56;;;;;;;6.45;4.68;;;;;;;19.40;66.48;99552.91;5071019;28;20025;-76
2021/06/17 03:36:23;;;;;;;13.65;5.72;;;;;;;19.60;66.23;99588.19;5070879;28;20465;-76
2021/06/17 03:38:51;;;;;;;5.15;4.30;;;;;;;19.51;66.21;99581.53;5070879;28;20016;-76
2021/06/17 03:41:17;;;;;;;9.40;4.90;;;;;;;19.27;66.13;99532.53;5070663;28;20390;-76
2021/06/17 03:43:45;;;;;;;9.48;5.07;;;;;;;19.36;65.92;99555.25;5070451;28;20455;-75
2021/06/17 03:46:11;;;;;;;6.78;4.22;;;;;;;19.33;65.93;99539.66;5070748;28;20024;-76
2021/06/17 03:48:44;;;;;;;6.47;4.40;;;;;;;19.72;66.09;99590.03;5071038;28;20078;-75
2021/06/17 03:51:12;;;;;;;6.43;3.90;;;;;;;19.71;65.88;99588.41;5069523;28;20027;-76
2021/06/17 03:53:39;;;;;;;4.65;3.80;;;;;;;18.83;65.56;99453.69;5069645;28;20055;-76
2021/06/17 03:56:05;;;;;;;10.07;4.93;;;;;;;19.68;65.80;99590.50;5070564;28;20021;-75
2021/06/17 03:58:31;;;;;;;5.30;4.00;;;;;;;19.25;65.59;99515.88;5070461;28;20020;-75
2021/06/17 04:00:57;;;;;;;6.15;4.60;;;;;;;19.82;65.75;99609.00;5074360;28;20025;-76
2021/06/17 04:03:28;;;;;;;5.30;4.15;;;;;;;19.83;65.62;99618.66;5074479;28;20028;-75
2021/06/17 04:05:58;;;;;;;5.28;4.20;;;;;;;19.84;65.65;99618.44;5074501;28;20520;-76
2021/06/17 04:08:32;;;;;;;6.65;4.50;;;;;;;19.42;65.21;99553.50;5074184;28;20028;-76
2021/06/17 04:10:59;;;;;;;6.78;4.60;;;;;;;19.97;65.37;99634.22;5074376;28;20031;-75
2021/06/17 04:13:30;;;;;;;5.78;5.00;;;;;;;19.99;65.50;99637.50;5072638;28;20017;-76
2021/06/17 04:15:57;;;;;;;5.50;5.00;;;;;;;19.67;65.50;99586.19;5074019;28;20032;-75
2021/06/17 04:18:25;;;;;;;5.53;4.70;;;;;;;20.02;65.40;99640.75;5073947;28;20099;-76
2021/06/17 04:20:53;;;;;;;7.93;5.30;;;;;;;20.03;65.43;99631.66;5074191;28;20463;-75
2021/06/17 04:23:20;;;;;;;6.28;4.60;;;;;;;19.79;65.54;99588.03;5072723;28;20028;-75
2021/06/17 04:25:47;;;;;;;5.88;5.07;;;;;;;20.12;65.62;99646.34;5074044;28;20029;-75
2021/06/17 04:28:12;;;;;;;8.80;5.60;;;;;;;19.84;65.42;99604.22;5074112;28;20044;-75
2021/06/17 04:30:39;;;;;;;8.90;5.32;;;;;;;19.97;65.56;99623.50;5074108;28;20044;-75
2021/06/17 04:33:08;;;;;;;10.07;5.88;;;;;;;20.13;65.68;99651.47;5072514;28;20020;-75
2021/06/17 04:35:35;;;;;;;7.85;5.55;;;;;;;19.65;65.88;99588.28;5073994;28;20112;-75
2021/06/17 04:38:01;;;;;;;8.63;5.10;;;;;;;20.10;65.98;99659.16;5074132;28;20024;-76
2021/06/17 04:40:28;;;;;;;9.60;5.53;;;;;;;20.12;66.09;99657.88;5073353;28;20055;-76
2021/06/17 04:42:57;;;;;;;7.72;5.63;;;;;;;20.09;65.94;99647.63;5073672;28;20542;-75
2021/06/17 04:45:26;;;;;;;8.90;6.20;;;;;;;20.18;66.06;99674.88;5073469;28;20431;-76
2021/06/17 04:47:53;;;;;;;8.05;5.60;;;;;;;19.80;66.23;99611.09;5073363;28;20048;-76
2021/06/17 04:50:21;;;;;;;10.35;6.80;;;;;;;19.80;66.17;99616.44;5072308;28;20089;-76
2021/06/17 04:52:50;;;;;;;8.18;6.20;;;;;;;20.13;66.53;99666.75;5073448;28;20089;-75
2021/06/17 04:55:16;;;;;;;14.82;7.63;;;;;;;20.12;66.67;99670.47;5072222;28;20027;-77
2021/06/17 04:57:41;;;;;;;8.45;6.68;;;;;;;19.63;66.11;99594.94;5073248;28;20028;-75
2021/06/17 05:00:08;;;;;;;6.72;6.10;;;;;;;20.15;65.73;99676.19;5073426;28;20408;-76
2021/06/17 05:02:33;;;;;;;8.00;5.50;;;;;;;20.18;65.18;99674.88;5073252;28;20027;-76
2021/06/17 05:04:58;;;;;;;7.55;5.20;;;;;;;20.03;64.85;99650.41;5072854;28;20021;-76
2021/06/17 05:12:42;;;;;;;7.50;5.80;;;;;;;19.38;65.08;99567.59;5073175;28;20027;-76
2021/06/17 05:15:08;;;;;;;7.05;6.07;;;;;;;19.92;64.97;99631.44;5071807;28;20020;-76
2021/06/17 05:17:34;;;;;;;8.27;5.22;;;;;;;19.95;64.76;99625.63;5072320;28;20520;-75
2021/06/17 05:20:01;;;;;;;7.88;5.55;;;;;;;20.23;64.93;99658.91;5072469;28;20103;-75
2021/06/17 05:22:26;;;;;;;7.00;5.05;;;;;;;20.00;64.72;99623.03;5072734;28;20114;-75
2021/06/17 05:24:52;;;;;;;5.30;4.55;;;;;;;20.29;64.37;99663.31;5072659;28;20059;-75
2021/06/17 05:27:18;;;;;;;8.57;4.60;;;;;;;20.34;64.35;99654.56;5072549;28;20028;-76
2021/06/17 05:29:43;;;;;;;5.50;4.13;;;;;;;20.52;64.26;99689.25;5072543;28;20012;-76
2021/06/17 05:32:09;;;;;;;5.47;4.38;;;;;;;20.18;64.08;99624.75;5071104;28;20033;-77
2021/06/17 05:34:34;;;;;;;8.77;6.00;;;;;;;20.02;63.92;99596.00;5072545;28;20497;-76
2021/06/17 05:37:00;;;;;;;4.95;4.03;;;;;;;20.50;63.63;99659.19;5055696;28;20405;-73
2021/06/17 05:39:25;;;;;;;6.55;5.85;;;;;;;20.26;63.37;99615.53;5053557;28;20024;-73
2021/06/17 05:41:51;;;;;;;6.72;4.78;;;;;;;20.70;63.26;99664.91;5062523;28;20040;-75
2021/06/17 05:44:16;;;;;;;6.70;5.20;;;;;;;20.80;63.07;99691.94;5052297;28;20033;-76
2021/06/17 05:46:41;;;;;;;8.77;6.63;;;;;;;20.69;62.92;99652.56;5052756;28;20021;-75
2021/06/17 05:49:07;;;;;;;8.90;5.07;;;;;;;20.82;62.87;99667.56;5052213;28;20096;-75
2021/06/17 05:51:33;;;;;;;7.10;4.85;;;;;;;20.97;62.98;99675.88;5052873;28;20496;-76
2021/06/17 05:54:00;;;;;;;7.25;4.32;;;;;;;20.85;62.83;99648.28;5060111;28;20548;-76
2021/06/17 05:56:26;;;;;;;7.07;4.40;;;;;;;20.88;62.34;99647.81;5062665;28;20032;-75
2021/06/17 05:58:51;;;;;;;5.35;4.78;;;;;;;20.69;62.44;99616.88;5057332;28;20033;-75
2021/06/17 06:01:18;;;;;;;5.13;4.63;;;;;;;20.75;62.55;99602.47;5061967;28;20043;-76
2021/06/17 06:03:43;;;;;;;6.05;4.40;;;;;;;20.80;62.38;99606.06;5067709;28;20036;-76
2021/06/17 06:06:09;;;;;;;6.47;4.70;;;;;;;21.25;62.07;99667.78;5064468;28;20017;-76
2021/06/17 06:08:34;;;;;;;4.43;4.03;;;;;;;21.10;62.11;99643.34;5054476;28;20503;-75
2021/06/17 06:10:59;;;;;;;7.95;6.60;;;;;;;21.34;61.83;99668.19;5063710;28;20024;-75
2021/06/17 06:13:25;;;;;;;7.57;5.65;;;;;;;21.14;61.91;99635.63;5064453;28;20077;-76
2021/06/17 06:15:51;;;;;;;6.88;5.65;;;;;;;21.07;61.88;99618.88;5058512;28;20080;-77
2021/06/17 06:18:18;;;;;;;6.25;4.53;;;;;;;21.46;61.97;99651.97;5051972;28;20025;-75
2021/06/17 06:20:46;;;;;;;6.38;4.82;;;;;;;21.60;61.95;99664.03;5055207;28;20028;-77
2021/06/17 06:23:12;;;;;;;5.13;4.35;;;;;;;21.68;61.96;99663.63;5062825;28;20039;-76
2021/06/17 06:25:38;;;;;;;4.95;3.80;;;;;;;21.74;61.76;99662.63;5054577;28;20032;-76
2021/06/17 06:28:05;;;;;;;7.53;5.80;;;;;;;21.82;61.71;99656.81;5052031;28;20024;-76
2021/06/17 06:30:30;;;;;;;6.05;5.28;;;;;;;21.71;61.77;99632.75;5051485;28;20505;-73
2021/06/17 06:32:56;;;;;;;11.52;4.35;;;;;;;21.89;61.58;99654.75;5055075;28;20115;-77
2021/06/17 06:35:22;;;;;;;7.20;4.88;;;;;;;22.08;61.80;99671.44;5049878;28;20021;-77
2021/06/17 06:37:49;;;;;;;6.03;4.32;;;;;;;22.14;61.40;99675.81;5066188;28;20032;-74
2021/06/17 06:40:20;;;;;;;5.85;4.60;;;;;;;22.14;61.57;99665.06;5056842;28;20028;-76
2021/06/17 06:42:46;;;;;;;5.78;3.95;;;;;;;22.28;61.57;99672.75;5050636;28;20021;-75
2021/06/17 06:45:12;;;;;;;4.15;3.72;;;;;;;21.96;60.94;99630.38;5070322;28;20569;-76
2021/06/17 06:47:38;;;;;;;4.05;3.65;;;;;;;21.98;60.73;99622.06;5069676;28;20020;-77
2021/06/17 06:50:05;;;;;;;4.57;3.88;;;;;;;22.06;60.62;99625.16;5066664;28;20051;-75
2021/06/17 06:52:30;;;;;;;5.22;4.30;;;;;;;22.51;60.30;99688.63;5065317;28;20422;-75
2021/06/17 06:54:58;;;;;;;7.28;4.18;;;;;;;22.45;59.90;99668.13;5050827;28;20073;-74
2021/06/17 06:57:27;;;;;;;4.93;3.95;;;;;;;22.44;59.59;99648.47;5050779;28;20021;-75
2021/06/17 06:59:53;;;;;;;6.47;3.65;;;;;;;22.69;59.30;99668.63;5055919;28;20050;-75
2021/06/17 07:02:19;;;;;;;4.10;3.50;;;;;;;22.51;58.87;99648.28;5053207;28;20032;-75
2021/06/17 07:04:44;;;;;;;4.70;4.30;;;;;;;22.80;58.62;99673.91;5053674;28;20557;-73
2021/06/17 07:07:10;;;;;;;7.65;4.80;;;;;;;22.77;58.39;99669.00;5056057;28;20485;-74
2021/06/17 07:09:35;;;;;;;6.32;4.00;;;;;;;23.05;57.95;99686.00;5049352;28;20025;-74
2021/06/17 07:12:02;;;;;;;5.53;3.63;;;;;;;22.86;57.86;99650.53;5050557;28;20060;-74
2021/06/17 07:14:28;;;;;;;5.50;3.28;;;;;;;22.53;57.72;99576.19;5050708;28;20043;-76
2021/06/17 07:16:54;;;;;;;5.25;4.00;;;;;;;23.27;57.63;99693.97;5051599;28;20110;-76
2021/06/17 07:19:19;;;;;;;4.30;3.58;;;;;;;23.10;57.76;99667.19;5063984;28;20493;-76
2021/06/17 07:21:45;;;;;;;6.35;3.90;;;;;;;23.14;57.92;99644.88;5060172;28;20025;-77
2021/06/17 07:24:10;;;;;;;10.48;9.25;;;;;;;22.82;58.16;99579.41;5052143;28;20074;-76
2021/06/17 07:26:36;;;;;;;8.20;4.47;;;;;;;23.55;58.38;99687.47;5060094;28;20050;-74
2021/06/17 07:29:02;;;;;;;6.32;4.65;;;;;;;23.53;58.64;99668.84;5060794;28;20082;-75
2021/06/17 07:31:28;;;;;;;4.70;4.20;;;;;;;23.22;58.77;99610.44;5048970;28;20108;-76
2021/06/17 07:33:55;;;;;;;6.60;4.25;;;;;;;23.79;58.66;99688.75;5067542;28;20131;-77
2021/06/17 07:36:20;;;;;;;5.20;4.70;;;;;;;23.79;58.65;99669.06;5093045;28;20025;-74
2021/06/17 07:38:46;;;;;;;5.65;4.22;;;;;;;23.94;58.16;99678.03;5094511;28;20024;-76
2021/06/17 07:41:12;;;;;;;6.18;4.72;;;;;;;24.00;58.49;99679.69;5062529;28;20093;-75
2021/06/17 07:43:37;;;;;;;5.47;4.40;;;;;;;23.88;58.43;99641.31;5053817;28;20127;-75
2021/06/17 07:46:04;;;;;;;4.68;4.20;;;;;;;24.24;57.50;99682.75;5053562;28;20025;-76
2021/06/17 07:48:30;;;;;;;5.00;4.20;;;;;;;24.03;56.85;99636.00;5052635;28;20111;-74
2021/06/17 07:50:55;;;;;;;6.30;3.53;;;;;;;24.29;56.48;99668.50;5053857;28;20183;-75
2021/06/17 07:53:21;;;;;;;5.32;3.83;;;;;;;23.77;56.54;99559.56;5055833;28;20055;-73
2021/06/17 07:55:46;;;;;;;7.28;3.97;;;;;;;24.32;56.05;99640.97;5060998;28;20599;-73
2021/06/17 07:58:12;;;;;;;5.05;4.10;;;;;;;24.66;55.91;99688.06;5070719;28;20111;-73
2021/06/17 08:00:38;;;;;;;5.22;4.72;;;;;;;24.69;55.40;99678.63;5053681;28;20024;-76
2021/06/17 08:03:04;;;;;;;4.07;3.38;;;;;;;23.86;53.20;99565.28;5053798;28;20021;-75
2021/06/17 08:05:30;;;;;;;3.55;3.25;;;;;;;24.59;53.11;99674.00;5053564;28;20044;-75
2021/06/17 08:07:55;;;;;;;4.32;3.92;;;;;;;24.37;52.90;99635.59;5071446;28;20028;-77
2021/06/17 08:10:24;;;;;;;3.75;3.45;;;;;;;24.76;52.35;99675.66;5061467;28;20150;-76
2021/06/17 08:12:49;;;;;;;3.33;3.05;;;;;;;24.82;52.04;99680.78;5053669;28;20047;-76
2021/06/17 08:15:15;;;;;;;3.22;2.70;;;;;;;24.67;51.27;99646.47;5053926;28;20485;-75
2021/06/17 08:17:41;;;;;;;4.13;2.53;;;;;;;24.95;50.97;99692.97;5052275;28;20028;-76
2021/06/17 08:20:08;;;;;;;3.67;2.95;;;;;;;25.00;49.31;99671.38;5053297;28;20463;-75
2021/06/17 08:22:38;;;;;;;3.88;3.38;;;;;;;25.05;48.42;99678.69;5064106;28;20033;-77
2021/06/17 08:25:04;;;;;;;3.33;2.75;;;;;;;25.07;48.08;99674.63;5053076;28;20493;-75
2021/06/17 08:27:30;;;;;;;3.30;2.47;;;;;;;24.59;48.45;99593.00;5053603;28;20472;-75
2021/06/17 08:29:55;;;;;;;3.25;2.60;;;;;;;25.21;47.69;99674.91;5052040;28;20117;-74
2021/06/17 08:32:21;;;;;;;2.60;2.40;;;;;;;25.25;47.33;99682.19;5052102;28;20028;-75
2021/06/17 08:34:46;;;;;;;5.10;3.05;;;;;;;25.00;48.00;99628.97;5073259;28;20017;-75
2021/06/17 08:37:12;;;;;;;5.95;3.72;;;;;;;25.31;47.63;99664.91;5073298;28;20028;-77
2021/06/17 08:39:37;;;;;;;4.10;2.95;;;;;;;25.18;47.09;99635.72;5073575;28;20024;-74
2021/06/17 08:42:04;;;;;;;5.40;2.78;;;;;;;25.43;46.25;99666.53;5055944;28;20057;-74
2021/06/17 08:44:30;;;;;;;3.55;2.72;;;;;;;25.20;46.65;99630.84;5051325;28;20103;-74
2021/06/17 08:46:56;;;;;;;3.35;2.60;;;;;;;25.22;45.89;99606.25;5053239;28;20045;-77
2021/06/17 08:49:24;;;;;;;2.92;2.35;;;;;;;25.77;46.06;99672.16;5053190;28;20071;-75
2021/06/17 08:51:49;;;;;;;3.15;2.70;;;;;;;25.90;44.96;99677.00;5057187;28;20095;-76
2021/06/17 08:54:24;;;;;;;3.08;2.28;;;;;;;26.02;45.08;99668.59;5051479;28;20485;-76
2021/06/17 08:56:50;;;;;;;3.10;2.42;;;;;;;26.11;44.61;99670.47;5052395;28;20075;-74
2021/06/17 08:59:17;;;;;;;2.85;2.42;;;;;;;26.21;44.12;99672.31;5062827;28;20024;-75
2021/06/17 09:01:54;;;;;;;3.67;2.90;;;;;;;26.27;43.61;99672.00;5056073;28;20029;-74
2021/06/17 09:04:27;;;;;;;5.18;3.30;;;;;;;26.35;43.87;99659.00;5084943;28;20081;-73
2021/06/17 09:06:59;;;;;;;3.08;2.70;;;;;;;26.51;41.87;99658.63;5061164;28;20009;-74
2021/06/17 09:09:31;;;;;;;2.72;2.20;;;;;;;26.26;41.85;99610.03;5061533;28;20035;-75
2021/06/17 09:11:57;;;;;;;4.18;2.78;;;;;;;26.44;42.29;99620.22;5057327;28;20028;-75
2021/06/17 09:14:24;;;;;;;3.58;2.15;;;;;;;26.58;42.03;99633.94;5065091;28;20021;-76
2021/06/17 09:17:08;;;;;;;2.72;2.53;;;;;;;26.89;41.70;99656.25;5069760;28;20031;-76
2021/06/17 09:19:38;;;;;;;2.60;2.40;;;;;;;27.07;41.74;99658.28;5091079;28;20032;-72
2021/06/17 09:22:04;;;;;;;3.85;3.45;;;;;;;27.23;41.52;99665.19;5078507;28;20021;-77
2021/06/17 09:24:31;;;;;;;2.67;2.38;;;;;;;27.37;40.92;99665.34;5052358;28;20052;-75
2021/06/17 09:27:35;;;;;;;4.10;2.08;;;;;;;27.52;40.07;99659.00;5052481;28;20028;-75
2021/06/17 09:30:10;;;;;;;4.03;2.47;;;;;;;27.69;40.04;99653.97;5052638;28;20021;-75
2021/06/17 09:32:37;;;;;;;3.03;2.42;;;;;;;27.69;39.88;99634.16;5068913;28;20048;-75
2021/06/17 09:35:15;;;;;;;3.08;2.58;;;;;;;27.54;39.42;99589.00;5071209;28;20020;-73
2021/06/17 09:37:40;;;;;;;3.85;2.50;;;;;;;28.05;40.06;99648.91;5071158;28;20036;-74
2021/06/17 09:40:22;;;;;;;4.22;2.30;;;;;;;28.22;39.33;99640.28;5071905;28;20412;-74
2021/06/17 09:42:49;;;;;;;4.55;2.63;;;;;;;28.32;39.61;99642.94;5071997;28;20409;-73
2021/06/17 09:45:23;;;;;;;3.10;2.30;;;;;;;28.51;39.85;99644.84;5065428;28;20036;-73
2021/06/17 09:47:49;;;;;;;3.10;2.60;;;;;;;28.42;39.11;99628.41;5064449;28;20043;-75
2021/06/17 09:50:22;;;;;;;2.95;2.65;;;;;;;28.61;39.00;99639.25;5063526;28;20025;-75
2021/06/17 09:52:48;;;;;;;3.58;2.80;;;;;;;28.74;38.32;99635.78;5051383;28;20093;-75
2021/06/17 09:55:34;;;;;;;3.67;3.38;;;;;;;28.90;37.25;99642.63;5060752;28;20048;-75
2021/06/17 09:58:00;;;;;;;3.47;2.50;;;;;;;29.07;38.65;99640.19;5057658;28;20104;-75
2021/06/17 10:00:25;;;;;;;2.92;2.53;;;;;;;29.17;37.77;99638.41;5052276;28;20036;-74
2021/06/17 10:02:51;;;;;;;3.10;2.60;;;;;;;29.23;37.01;99638.03;5052050;28;20163;-77
2021/06/17 10:05:21;;;;;;;2.88;2.50;;;;;;;29.02;36.80;99576.94;5059309;28;20039;-74
2021/06/17 10:07:48;;;;;;;2.50;2.20;;;;;;;29.28;36.26;99604.50;5063068;28;20029;-76
2021/06/17 10:10:16;;;;;;;3.72;2.42;;;;;;;29.47;36.35;99612.59;5053098;28;20394;-75
2021/06/17 10:12:43;;;;;;;5.30;2.47;;;;;;;29.40;36.13;99581.13;5051259;28;20490;-73
2021/06/17 10:15:09;;;;;;;4.65;3.28;;;;;;;29.27;35.78;99538.41;5064496;28;20028;-73
2021/06/17 10:17:35;;;;;;;6.03;4.78;;;;;;;29.69;35.96;99575.41;5051281;28;20033;-73
2021/06/17 10:20:06;;;;;;;2.72;2.45;;;;;;;30.01;34.64;99584.56;5051715;28;20556;-73
2021/06/17 10:22:33;;;;;;;2.85;2.65;;;;;;;29.83;34.80;99556.38;5055640;28;20028;-74
2021/06/17 10:24:59;;;;;;;4.18;2.38;;;;;;;29.96;34.47;99543.84;5066328;28;20040;-75
2021/06/17 10:27:35;;;;;;;3.42;2.28;;;;;;;30.22;33.91;99572.16;5048281;28;20025;-73
2021/06/17 10:30:01;;;;;;;4.70;2.28;;;;;;;29.95;33.70;99539.50;5054132;28;20413;-75
2021/06/17 10:32:38;;;;;;;2.95;2.15;;;;;;;29.96;33.29;99550.09;5057371;28;20032;-74
2021/06/17 10:35:05;;;;;;;3.28;2.22;;;;;;;30.29;33.21;99583.44;5055935;28;20083;-73
2021/06/17 10:37:32;;;;;;;2.90;2.00;;;;;;;30.26;33.18;99588.69;5052337;28;20118;-74
2021/06/17 10:40:17;;;;;;;4.20;2.10;;;;;;;30.27;33.03;99560.31;5061025;28;20408;-77
2021/06/17 10:42:44;;;;;;;2.47;2.28;;;;;;;30.52;32.73;99567.94;5052693;28;20021;-75
2021/06/17 10:45:10;;;;;;;2.42;2.00;;;;;;;30.67;32.93;99583.13;5054379;28;20117;-73
2021/06/17 10:47:43;;;;;;;3.55;2.25;;;;;;;30.89;32.54;99577.66;5062443;28;20071;-73
2021/06/17 10:50:10;;;;;;;4.30;2.40;;;;;;;30.75;32.43;99514.25;5060086;28;20107;-75
2021/06/17 10:52:38;;;;;;;2.33;2.10;;;;;;;31.36;31.53;99578.13;5051820;28;20029;-75
2021/06/17 10:55:07;;;;;;;2.63;2.42;;;;;;;31.48;31.56;99574.81;5059436;28;20031;-73
2021/06/17 10:57:42;;;;;;;2.15;1.80;;;;;;;31.57;30.97;99578.38;5067036;28;20074;-73
2021/06/17 11:00:23;;;;;;;2.17;1.80;;;;;;;31.74;28.89;99569.44;5060350;28;20039;-72
2021/06/17 11:02:53;;;;;;;3.75;2.17;;;;;;;31.65;30.96;99546.75;5052455;28;20489;-73
2021/06/17 11:05:31;;;;;;;2.67;2.15;;;;;;;32.04;29.41;99573.22;5053107;28;20056;-73
2021/06/17 11:08:15;;;;;;;3.83;2.30;;;;;;;32.09;30.15;99573.06;5052145;28;20043;-75
2021/06/17 11:10:52;;;;;;;2.33;2.13;;;;;;;32.23;29.56;99574.53;5067780;28;20416;-73
2021/06/17 11:13:34;;;;;;;2.13;1.90;;;;;;;32.32;29.44;99574.56;5069400;28;20104;-73
2021/06/17 11:16:01;;;;;;;2.55;1.92;;;;;;;32.37;29.63;99562.66;5055452;28;20034;-73
2021/06/17 11:18:43;;;;;;;3.17;2.03;;;;;;;32.29;29.16;99530.69;5052662;28;20482;-74
2021/06/17 11:21:21;;;;;;;6.28;2.00;;;;;;;32.57;28.58;99559.28;5054755;28;20292;-75
2021/06/17 11:23:50;;;;;;;1.98;1.80;;;;;;;32.61;28.89;99543.81;5054555;28;20033;-75
2021/06/17 11:26:45;;;;;;;2.10;1.90;;;;;;;32.77;27.98;99549.63;5061202;28;20035;-73
2021/06/17 11:29:11;;;;;;;3.28;2.00;;;;;;;32.89;29.08;99544.31;5069154;28;20043;-75
2021/06/17 11:31:41;;;;;;;2.53;2.28;;;;;;;32.75;29.22;99547.19;5056490;28;20035;-73
2021/06/17 11:34:08;;;;;;;2.67;2.15;;;;;;;32.89;29.40;99538.84;5063496;28;20033;-74
2021/06/17 11:36:34;;;;;;;2.95;2.03;;;;;;;33.00;28.62;99514.66;5053919;28;20037;-74
2021/06/17 11:39:03;;;;;;;3.70;2.10;;;;;;;33.15;28.83;99538.75;5065980;28;20566;-72
2021/06/17 11:41:31;;;;;;;2.38;2.10;;;;;;;33.28;28.48;99536.91;5063008;28;20029;-76
2021/06/17 11:44:00;;;;;;;2.42;2.22;;;;;;;33.41;27.79;99528.50;5053321;28;20044;-74
2021/06/17 11:46:36;;;;;;;3.00;1.90;;;;;;;33.66;26.79;99534.19;5054127;28;20037;-74